• Join FlightAware (Why Join?)
  • Login
  • US Flag 
04:53AM EDT


 

Airport Tracker/Info


-or-


 

Live Flight TrackerFlight Track Log ✈ AAL1624 ✈ 24-Apr-2013 ✈ KORD - KMCI

Flight Track Log - Related Links

Times and Time Zones

All times are in EDT time to prevent confusion due to time zone crossing. See the AAL1624 flight status page for this flight to view local times or setup timezone preferences in your user account.

Time Position Orientation Groundspeed Altitude Reporting Facility
EDT Latitude Longitude Course Direction KTS MPH feet Rate Location/Type
11:21PM 41.9970 -87.9410 296° West 149 171 1,500  Level FlightAware
11:21PM 42.0000 -87.9550 286° West 141 162 2,000 1,860 Climbing FlightAware
11:22PM 42.0010 -87.9840 273° West 171 197 2,900 1,800 Climbing FlightAware
11:22PM 42.0010 -88.0130 270° West 200 230 3,700 2,400 Climbing FlightAware
11:22PM 42.0000 -88.0340 266° West 212 244 4,500 2,520 Climbing FlightAware
11:23PM 41.9990 -88.0730 268° West 232 267 5,600 2,520 Climbing FlightAware
11:23PM 41.9990 -88.0960 270° West 238 274 6,400 3,000 Climbing FlightAware
11:23PM 41.9970 -88.1330 266° West 251 289 7,600 3,120 Climbing FlightAware
11:24PM 41.9960 -88.1770 268° West 253 291 9,300 3,600 Climbing FlightAware
11:25PM 41.9890 -88.2430 262° West 263 303 11,800 3,600 Climbing FlightAware
11:25PM 41.9710 -88.3130 251° West 274 315 14,400 3,060 Climbing FlightAware
11:26PM 41.9550 -88.3720 250° West 304 350 15,900 2,160 Climbing FlightAware
11:27PM 41.9320 -88.4600 251° West 350 403 17,300 2,220 Climbing FlightAware
11:27PM 41.9040 -88.5590 249° West 374 430 19,300 2,580 Climbing FlightAware
11:28PM 41.8800 -88.6480 250° West 389 448 21,000 2,520 Climbing FlightAware
11:29PM 41.8530 -88.7490 250° West 399 459 22,900 2,580 Climbing FlightAware
11:29PM 41.8280 -88.8420 250° West 401 461 24,700 2,580 Climbing FlightAware
11:30PM 41.7980 -88.9370 247° West 405 466 26,400 2,280 Climbing FlightAware
11:31PM 41.7580 -89.0310 240° Southwest 406 467 28,000 2,220 Climbing FlightAware
11:32PM 41.7200 -89.1180 240° Southwest 401 461 29,600 2,280 Climbing FlightAware
11:32PM 41.6820 -89.2070 240° Southwest 397 457 31,100 1,680 Climbing FlightAware
11:33PM 41.6400 -89.3040 240° Southwest 403 464 32,000 600 Climbing FlightAware
11:34PM 41.6030 -89.3890 240° Southwest 403 464 32,000  Level FlightAware
11:34PM 41.5590 -89.4890 240° Southwest 403 464 32,000  Level FlightAware
11:35PM 41.5240 -89.5700 240° Southwest 405 466 32,000  Level FlightAware
11:36PM 41.4860 -89.6570 240° Southwest 405 466 32,000  Level FlightAware
11:36PM 41.4420 -89.7570 240° Southwest 405 466 32,000  Level FlightAware
11:37PM 41.4040 -89.8430 240° Southwest 406 467 32,000  Level FlightAware
11:38PM 41.3610 -89.9390 239° Southwest 405 466 32,000  Level FlightAware
11:39PM 41.3250 -90.0220 240° Southwest 404 465 32,000  Level FlightAware
11:39PM 41.2900 -90.1020 240° Southwest 403 464 32,000  Level FlightAware
11:40PM 41.2440 -90.2040 239° Southwest 403 464 32,000  Level FlightAware
11:41PM 41.2070 -90.2860 239° Southwest 403 464 32,000  Level FlightAware
11:41PM 41.1640 -90.3830 240° Southwest 405 466 32,000  Level FlightAware
11:42PM 41.1270 -90.4640 239° Southwest 405 466 32,000  Level FlightAware
11:43PM 41.0810 -90.5660 239° Southwest 407 468 32,000  Level FlightAware
11:43PM 41.0420 -90.6520 239° Southwest 408 470 32,000  Level FlightAware
11:44PM 40.9980 -90.7490 239° Southwest 407 468 32,000  Level FlightAware
11:45PM 40.9590 -90.8360 239° Southwest 408 470 32,000  Level FlightAware
11:46PM 40.9200 -90.9200 238° Southwest 408 470 32,000  Level FlightAware
11:46PM 40.8830 -91.0010 239° Southwest 408 470 32,000  Level FlightAware
11:47PM 40.8380 -91.1000 239° Southwest 408 470 32,000  Level FlightAware
11:48PM 40.7980 -91.1870 239° Southwest 408 470 32,000  Level FlightAware
11:48PM 40.7630 -91.2620 238° Southwest 408 470 32,000  Level FlightAware
11:49PM 40.7150 -91.3670 239° Southwest 408 470 32,000  Level FlightAware
11:50PM 40.6730 -91.4560 238° Southwest 408 470 32,000  Level FlightAware
11:50PM 40.6310 -91.5460 238° Southwest 406 467 32,000  Level FlightAware
11:51PM 40.5940 -91.6250 238° Southwest 406 467 32,000  Level FlightAware
11:52PM 40.5470 -91.7270 239° Southwest 407 468 32,000  Level FlightAware
11:53PM 40.5080 -91.8090 238° Southwest 409 471 32,000  Level FlightAware
11:53PM 40.4720 -91.8850 238° Southwest 409 471 32,000  Level FlightAware
11:54PM 40.4220 -91.9910 238° Southwest 411 473 32,000  Level FlightAware
11:55PM 40.3790 -92.0820 238° Southwest 411 473 32,000  Level FlightAware
11:55PM 40.3370 -92.1690 238° Southwest 413 475 32,000  Level FlightAware
11:56PM 40.2980 -92.2530 239° Southwest 414 476 32,000  Level FlightAware
11:57PM 40.2520 -92.3490 238° Southwest 415 478 32,000  Level FlightAware
11:57PM 40.2100 -92.4350 237° Southwest 414 476 32,000  Level FlightAware
11:58PM 40.1740 -92.5080 237° Southwest 414 476 32,000 -900 Level FlightAware
11:59PM 40.1280 -92.6120 240° Southwest 397 457 30,800 -1,500 Descending FlightAware
11:59PM 40.1010 -92.6800 243° Southwest 398 458 30,000 -1,740 Descending FlightAware
12:00AM 40.0570 -92.7950 243° Southwest 414 476 28,400 -2,040 Descending FlightAware
12:01AM 40.0220 -92.8840 243° Southwest 415 478 27,000 -2,280 Descending FlightAware
12:02AM 39.9880 -92.9730 244° Southwest 407 468 25,400 -2,520 Descending FlightAware
12:02AM 39.9480 -93.0730 242° Southwest 402 463 23,500 -2,580 Descending FlightAware
12:03AM 39.9110 -93.1680 243° Southwest 392 451 21,600 -2,400 Descending FlightAware
12:04AM 39.8800 -93.2490 244° Southwest 377 434 20,100 -2,400 Descending FlightAware
12:04AM 39.8480 -93.3280 242° Southwest 365 420 18,400 -2,520 Descending FlightAware
12:05AM 39.8140 -93.4160 243° Southwest 352 405 16,600 -2,400 Descending FlightAware
12:06AM 39.7840 -93.4900 242° Southwest 345 397 15,000 -2,400 Descending FlightAware
12:07AM 39.7560 -93.5610 243° Southwest 339 390 13,400 -2,280 Descending FlightAware
12:07AM 39.7240 -93.6420 243° Southwest 333 383 11,800 -1,200 Descending FlightAware
12:08AM 39.6970 -93.7100 243° Southwest 328 377 11,700 -120 Descending FlightAware
12:09AM 39.6630 -93.7940 242° Southwest 331 381 11,700  Level FlightAware
12:09AM 39.6350 -93.8640 243° Southwest 330 380 11,700 -120 Level FlightAware
12:10AM 39.6020 -93.9320 238° Southwest 333 383 11,600 -300 Descending FlightAware
12:11AM 39.5680 -94.0010 237° Southwest 284 327 11,300 -720 Descending FlightAware
12:11AM 39.5420 -94.0530 237° Southwest 260 299 10,600 -1,320 Descending FlightAware
12:12AM 39.5250 -94.0930 241° Southwest 248 285 9,800 -1,800 Descending FlightAware
12:12AM 39.5180 -94.1310 257° West 246 283 9,000 -1,860 Descending FlightAware
12:13AM 39.5090 -94.1740 255° West 244 281 8,100 -1,860 Descending FlightAware
12:13AM 39.5020 -94.2070 255° West 247 284 7,300 -1,860 Descending FlightAware
12:14AM 39.4930 -94.2500 255° West 246 283 6,400 -1,620 Descending FlightAware
12:14AM 39.4850 -94.2930 256° West 238 274 5,700 -1,440 Descending FlightAware
12:15AM 39.4780 -94.3250 254° West 236 272 5,100 -1,140 Descending FlightAware
12:15AM 39.4690 -94.3690 255° West 232 267 4,700 -480 Descending FlightAware
12:16AM 39.4640 -94.3920 254° West 232 267 4,700 -240 Level FlightAware
12:16AM 39.4530 -94.4490 256° West 231 266 4,500 -420 Descending FlightAware
12:17AM 39.4480 -94.4730 255° West 228 262 4,300 -300 Descending FlightAware
12:17AM 39.4420 -94.5050 256° West 228 262 4,300 -480 Level FlightAware
12:17AM 39.4344 -94.5411 256° West 225 259 3,900 -660 Descending Kansas City Center
12:18AM 39.4194 -94.6111 255° West 214 246 3,300 -600 Descending Kansas City Center
12:19AM 39.3967 -94.6647 241° Southwest 172 198 2,800 -660 Descending Kansas City Center
12:20AM 39.3542 -94.6861 201° Southwest 144 166 2,000 -720 Descending Kansas City Center
12:21AM 39.3233 -94.6972 196° South 123 142 1,400 -540 Descending Kansas City Center
12:23AM 39.2914 -94.7061 192° South 124 143 1,000 -420 Descending Kansas City Center
12:24AM 39.2833 -94.7000 270° West  Level FlightAware Approximate